Salem, Salem Airport (VOSM)

NameSalem Airport
CitySalem
CountryIndia
ICAOVOSM
IATASXV
Altitude307 m
CoordinatesGoogle Map
Live Air TrafficLiveATC.net
METARVOSM 270500Z VRB03KT 5000 HZ FEW020 29/20 Q1015 NOSIG
2020-02-27 05:00:00 Wind: North (0°) 1.54 m/s - Visibility: 5000 m - Weather: Haze - Temperature: 29 °C - Dew point: 20 °C - Humidity: 58.3% - Pressure: 1015 hPa

Sorry, no flights used the airport in this database.